Nearby METAR Reports

 

KDVT - Phoenix/Deer Vly, Arizona, USA
Distance from station: SW 14mi, 22km
Updated: Wed, 01-Apr-2020 8:53pm MST
Clear
Clear
 Wind from calm
Wind: Calm
Temperature: 68°F , 20°C
Dew Point: 41°F , 5°C
Humidity: 38%
Barometer: 29.76 inHg , 1007.8 hPa
Clouds: Clear
Visibility: 10 miles , 16 km
2020/04/02 03:53 KDVT 020353Z 00000KT 10SM CLR 20/05 A2976 RMK AO2 SLP062 T02000050
KSDL - Scottsdale, Arizona, USA
Distance from station: S 15mi, 23km
Updated: Wed, 01-Apr-2020 8:53pm MST
Clear
Clear
 Wind from NE
Wind: NE 5 mph , 7 km/h
Temperature: 73°F , 23°C
Dew Point: 39°F , 4°C
Humidity: 29%
Barometer: 29.77 inHg , 1008.1 hPa
Clouds: Clear
Visibility: 10 miles , 16 km
2020/04/02 03:53 KSDL 020353Z 04004KT 10SM CLR 23/04 A2977 RMK AO2 SLP062 T02280044
KFFZ - Mesa/Falcon Fld, Arizona, USA
Distance from station: SSE 27mi, 44km
Updated: Wed, 01-Apr-2020 8:54pm MST
Clear
Clear
 Wind from calm
Wind: Calm
Temperature: 72°F , 22°C
Dew Point: 45°F , 7°C
Humidity: 38%
Barometer: 29.76 inHg , 1007.8 hPa
Clouds: Clear
Visibility: 10 miles , 16 km
2020/04/02 03:54 KFFZ 020354Z AUTO 00000KT 10SM CLR 22/07 A2976 RMK AO2 SLP057 T02170067
 
KPHX - Phoenix/Sky Hrbr, Arizona, USA
Distance from station: SSW 28mi, 45km
Updated: Wed, 01-Apr-2020 8:51pm MST
Partly cloudy
Partly cloudy
 Wind from SW
Wind: SW 3 mph , 6 km/h
Temperature: 73°F , 23°C
Dew Point: 43°F , 6°C
Humidity: 33%
Barometer: 29.73 inHg , 1006.8 hPa
Clouds: Partly cloudy
Visibility: 10 miles , 16 km
Cloud details: Partly cloudy 25000 ft
2020/04/02 03:51 KPHX 020351Z 22003KT 10SM SCT250 23/06 A2973 RMK AO2 SLP054 T02330061
KGEU - Glendale, Arizona, USA
Distance from station: SW 31mi, 49km
Updated: Wed, 01-Apr-2020 7:50pm MST
Few Clouds
Few Clouds
 Wind from calm
Wind: Calm
Temperature: 73°F , 23°C
Dew Point: 37°F , 3°C
Humidity: 27%
Barometer: 29.74 inHg , 1007.1 hPa
Clouds: Few Clouds
Visibility: 10 miles , 16 km
Cloud details: Few Clouds 18000 ft
2020/04/02 02:50 KGEU 020250Z 00000KT 10SM FEW180 23/03 A2974 RMK LAST
KLUF - Luke Afb/Glendal, Arizona, USA
Distance from station: SW 34mi, 55km
Updated: Wed, 01-Apr-2020 8:58pm MST
Clear
Clear
 Wind from NNE
Wind: NNE 3 mph , 6 km/h
Temperature: 68°F , 20°C
Dew Point: 41°F , 5°C
Humidity: 38%
Barometer: 29.73 inHg , 1006.8 hPa
Clouds: Clear
Visibility: 10 miles , 16 km
2020/04/02 03:58 KLUF 020358Z AUTO 02003KT 10SM CLR 20/05 A2973 RMK AO2 SLP060 T02010049 $
 
KGYR - Goodyear Municip, Arizona, USA
Distance from station: SW 39mi, 63km
Updated: Wed, 01-Apr-2020 8:47pm MST
Clear
Clear
 Wind from calm
Wind: Calm
Temperature: 75°F , 24°C
Dew Point: 43°F , 6°C
Humidity: 31%
Barometer: 29.74 inHg , 1007.1 hPa
Clouds: Clear
Visibility: 10 miles , 16 km
2020/04/02 03:47 KGYR 020347Z 00000KT 10SM SKC 24/06 A2974 RMK LAST
KIWA - Chandler/Mesa, Arizona, USA
Distance from station: SSE 39mi, 63km
Updated: Wed, 01-Apr-2020 8:47pm MST
Few Clouds
Few Clouds
 Wind from calm
Wind: Calm
Temperature: 72°F , 22°C
Dew Point: 37°F , 3°C
Humidity: 29%
Barometer: 29.77 inHg , 1008.1 hPa
Clouds: Few Clouds
Visibility: 10 miles , 16 km
Cloud details: Few Clouds 20000 ft
2020/04/02 03:47 KIWA 020347Z 00000KT 10SM FEW200 22/03 A2977
KPAN - Payson, Arizona, USA
Distance from station: NE 44mi, 70km
Updated: Wed, 01-Apr-2020 8:55pm MST
Clear
Clear
 Wind from S
Wind: S 3 mph , 6 km/h
Temperature: 55°F , 13°C
Dew Point: 30°F , -1°C
Humidity: 38%
Barometer: 29.94 inHg , 1013.9 hPa
Clouds: Clear
Visibility: 10 miles , 16 km
2020/04/02 03:55 KPAN 020355Z AUTO 19003KT 10SM CLR 13/M01 A2994 RMK AO2